Terminal Aerodrome Forecast
Issued by NWS

Home | Current Version | Previous Version | Text Only | Print | Product List | Glossary On
Versions: 1 2 3 4 5 6 7 8 9 10 11 12 13
000
FTUS44 KTSA 260520
TAFFYV
TAF
KFYV 260520Z 2606/2706 VRB03KT P6SM FEW060 BKN250
     FM261200 19007KT P6SM SCT040 BKN150 PROB30 2615/2621 4SM -TSRA
      BR BKN035CB
     FM262100 15005KT P6SM FEW045 BKN150=

USA.gov is the U.S. government's official web portal to all federal, state and local government web resources and services.